sensor_id;sensor_type;location;lat;lon;timestamp;P1;durP1;ratioP1;P2;durP2;ratioP2
4724;SDS011;2376;53.544;10.226;2023-04-01T00:02:23;7.40;;;5.00;;
4724;SDS011;2376;53.544;10.226;2023-04-01T00:04:50;9.50;;;5.30;;
4724;SDS011;2376;53.544;10.226;2023-04-01T00:07:16;6.50;;;5.20;;
4724;SDS011;2376;53.544;10.226;2023-04-01T00:09:43;7.70;;;4.80;;
4724;SDS011;2376;53.544;10.226;2023-04-01T00:12:10;6.03;;;5.00;;
4724;SDS011;2376;53.544;10.226;2023-04-01T00:14:36;6.37;;;4.80;;
4724;SDS011;2376;53.544;10.226;2023-04-01T00:17:04;4.43;;;4.13;;
4724;SDS011;2376;53.544;10.226;2023-04-01T00:19:32;5.40;;;4.50;;
4724;SDS011;2376;53.544;10.226;2023-04-01T00:21:59;6.00;;;4.57;;
4724;SDS011;2376;53.544;10.226;2023-04-01T00:24:26;4.17;;;3.77;;
4724;SDS011;2376;53.544;10.226;2023-04-01T00:26:54;10.43;;;4.83;;
4724;SDS011;2376;53.544;10.226;2023-04-01T00:29:21;5.33;;;4.93;;
4724;SDS011;2376;53.544;10.226;2023-04-01T00:31:49;5.73;;;4.50;;
4724;SDS011;2376;53.544;10.226;2023-04-01T00:34:16;9.37;;;5.03;;
4724;SDS011;2376;53.544;10.226;2023-04-01T00:36:44;7.30;;;4.53;;
4724;SDS011;2376;53.544;10.226;2023-04-01T00:39:11;5.07;;;3.83;;
4724;SDS011;2376;53.544;10.226;2023-04-01T00:41:38;7.33;;;4.93;;
4724;SDS011;2376;53.544;10.226;2023-04-01T00:44:11;5.53;;;3.87;;
4724;SDS011;2376;53.544;10.226;2023-04-01T00:46:43;4.93;;;4.50;;
4724;SDS011;2376;53.544;10.226;2023-04-01T00:49:09;5.80;;;4.63;;
4724;SDS011;2376;53.544;10.226;2023-04-01T00:51:36;5.53;;;3.97;;
4724;SDS011;2376;53.544;10.226;2023-04-01T00:54:06;5.17;;;4.67;;
4724;SDS011;2376;53.544;10.226;2023-04-01T00:56:36;7.80;;;3.90;;
4724;SDS011;2376;53.544;10.226;2023-04-01T00:59:06;7.07;;;4.03;;
4724;SDS011;2376;53.544;10.226;2023-04-01T01:01:36;13.03;;;4.80;;
4724;SDS011;2376;53.544;10.226;2023-04-01T01:04:04;7.67;;;4.30;;
4724;SDS011;2376;53.544;10.226;2023-04-01T01:06:35;5.57;;;4.50;;
4724;SDS011;2376;53.544;10.226;2023-04-01T01:09:17;5.13;;;4.60;;
4724;SDS011;2376;53.544;10.226;2023-04-01T01:11:57;5.60;;;4.47;;
4724;SDS011;2376;53.544;10.226;2023-04-01T01:14:34;4.60;;;4.17;;
4724;SDS011;2376;53.544;10.226;2023-04-01T01:17:10;5.63;;;5.13;;
4724;SDS011;2376;53.544;10.226;2023-04-01T01:19:51;7.70;;;4.77;;
4724;SDS011;2376;53.544;10.226;2023-04-01T01:22:36;4.03;;;3.63;;
4724;SDS011;2376;53.544;10.226;2023-04-01T01:25:22;7.10;;;4.20;;
4724;SDS011;2376;53.544;10.226;2023-04-01T01:27:58;5.03;;;4.70;;
4724;SDS011;2376;53.544;10.226;2023-04-01T01:30:40;7.23;;;5.37;;
4724;SDS011;2376;53.544;10.226;2023-04-01T01:33:14;10.67;;;5.50;;
4724;SDS011;2376;53.544;10.226;2023-04-01T01:35:56;5.70;;;5.20;;
4724;SDS011;2376;53.544;10.226;2023-04-01T01:38:26;5.37;;;4.80;;
4724;SDS011;2376;53.544;10.226;2023-04-01T01:40:57;6.00;;;4.83;;
4724;SDS011;2376;53.544;10.226;2023-04-01T01:43:25;5.93;;;5.00;;
4724;SDS011;2376;53.544;10.226;2023-04-01T01:45:57;7.70;;;5.33;;
4724;SDS011;2376;53.544;10.226;2023-04-01T01:48:26;6.27;;;4.87;;
4724;SDS011;2376;53.544;10.226;2023-04-01T01:50:56;6.07;;;5.00;;
4724;SDS011;2376;53.544;10.226;2023-04-01T01:53:24;12.07;;;5.50;;
4724;SDS011;2376;53.544;10.226;2023-04-01T01:55:51;7.20;;;5.30;;
4724;SDS011;2376;53.544;10.226;2023-04-01T01:58:19;5.57;;;4.90;;
4724;SDS011;2376;53.544;10.226;2023-04-01T02:00:50;8.57;;;6.03;;
4724;SDS011;2376;53.544;10.226;2023-04-01T02:03:20;8.77;;;5.50;;
4724;SDS011;2376;53.544;10.226;2023-04-01T02:05:49;6.47;;;4.67;;
4724;SDS011;2376;53.544;10.226;2023-04-01T02:08:20;8.27;;;5.50;;
4724;SDS011;2376;53.544;10.226;2023-04-01T02:10:53;9.87;;;6.13;;
4724;SDS011;2376;53.544;10.226;2023-04-01T02:13:24;6.53;;;5.93;;
4724;SDS011;2376;53.544;10.226;2023-04-01T02:15:56;6.20;;;5.57;;
4724;SDS011;2376;53.544;10.226;2023-04-01T02:18:25;9.30;;;6.13;;
4724;SDS011;2376;53.544;10.226;2023-04-01T02:20:56;9.93;;;5.40;;
4724;SDS011;2376;53.544;10.226;2023-04-01T02:23:26;9.50;;;6.10;;
4724;SDS011;2376;53.544;10.226;2023-04-01T02:25:55;8.47;;;5.93;;
4724;SDS011;2376;53.544;10.226;2023-04-01T02:28:22;6.13;;;5.50;;
4724;SDS011;2376;53.544;10.226;2023-04-01T02:30:50;8.03;;;6.27;;
4724;SDS011;2376;53.544;10.226;2023-04-01T02:33:18;8.40;;;5.90;;
4724;SDS011;2376;53.544;10.226;2023-04-01T02:35:46;8.63;;;5.70;;
4724;SDS011;2376;53.544;10.226;2023-04-01T02:38:13;7.03;;;6.30;;
4724;SDS011;2376;53.544;10.226;2023-04-01T02:40:47;7.43;;;6.37;;
4724;SDS011;2376;53.544;10.226;2023-04-01T02:43:16;7.33;;;6.13;;
4724;SDS011;2376;53.544;10.226;2023-04-01T02:45:44;6.60;;;5.57;;
4724;SDS011;2376;53.544;10.226;2023-04-01T02:48:11;6.80;;;6.30;;
4724;SDS011;2376;53.544;10.226;2023-04-01T02:50:39;7.90;;;6.30;;
4724;SDS011;2376;53.544;10.226;2023-04-01T02:53:06;7.03;;;6.03;;
4724;SDS011;2376;53.544;10.226;2023-04-01T02:55:33;7.00;;;6.13;;
4724;SDS011;2376;53.544;10.226;2023-04-01T02:58:01;7.37;;;5.80;;
4724;SDS011;2376;53.544;10.226;2023-04-01T03:00:28;8.33;;;6.07;;
4724;SDS011;2376;53.544;10.226;2023-04-01T03:02:55;6.53;;;5.93;;
4724;SDS011;2376;53.544;10.226;2023-04-01T03:05:22;6.90;;;6.17;;
4724;SDS011;2376;53.544;10.226;2023-04-01T03:07:49;6.70;;;6.10;;
4724;SDS011;2376;53.544;10.226;2023-04-01T03:10:16;7.63;;;6.10;;
4724;SDS011;2376;53.544;10.226;2023-04-01T03:12:43;7.40;;;6.27;;
4724;SDS011;2376;53.544;10.226;2023-04-01T03:15:12;6.60;;;5.90;;
4724;SDS011;2376;53.544;10.226;2023-04-01T03:17:40;5.60;;;5.20;;
4724;SDS011;2376;53.544;10.226;2023-04-01T03:20:08;8.53;;;5.80;;
4724;SDS011;2376;53.544;10.226;2023-04-01T03:22:37;6.53;;;5.93;;
4724;SDS011;2376;53.544;10.226;2023-04-01T03:25:05;6.67;;;5.97;;
4724;SDS011;2376;53.544;10.226;2023-04-01T03:27:33;6.03;;;5.43;;
4724;SDS011;2376;53.544;10.226;2023-04-01T03:30:00;7.10;;;5.90;;
4724;SDS011;2376;53.544;10.226;2023-04-01T03:32:29;6.70;;;5.97;;
4724;SDS011;2376;53.544;10.226;2023-04-01T03:34:56;6.47;;;5.90;;
4724;SDS011;2376;53.544;10.226;2023-04-01T03:37:23;6.40;;;5.80;;
4724;SDS011;2376;53.544;10.226;2023-04-01T03:39:50;6.23;;;5.33;;
4724;SDS011;2376;53.544;10.226;2023-04-01T03:42:17;6.30;;;5.43;;
4724;SDS011;2376;53.544;10.226;2023-04-01T03:44:44;16.30;;;6.83;;
4724;SDS011;2376;53.544;10.226;2023-04-01T03:47:11;11.30;;;6.80;;
4724;SDS011;2376;53.544;10.226;2023-04-01T03:49:39;7.10;;;6.20;;
4724;SDS011;2376;53.544;10.226;2023-04-01T03:52:08;8.43;;;6.53;;
4724;SDS011;2376;53.544;10.226;2023-04-01T03:54:35;9.97;;;6.30;;
4724;SDS011;2376;53.544;10.226;2023-04-01T03:57:02;6.80;;;6.17;;
4724;SDS011;2376;53.544;10.226;2023-04-01T03:59:29;6.43;;;5.83;;
4724;SDS011;2376;53.544;10.226;2023-04-01T04:01:56;7.33;;;5.90;;
4724;SDS011;2376;53.544;10.226;2023-04-01T04:04:23;9.07;;;7.80;;
4724;SDS011;2376;53.544;10.226;2023-04-01T04:06:53;8.30;;;7.00;;
4724;SDS011;2376;53.544;10.226;2023-04-01T04:09:20;7.73;;;6.97;;
4724;SDS011;2376;53.544;10.226;2023-04-01T04:11:47;7.30;;;6.70;;
4724;SDS011;2376;53.544;10.226;2023-04-01T04:14:14;8.60;;;7.80;;
4724;SDS011;2376;53.544;10.226;2023-04-01T04:16:41;8.10;;;7.17;;
4724;SDS011;2376;53.544;10.226;2023-04-01T04:19:08;7.30;;;6.70;;
4724;SDS011;2376;53.544;10.226;2023-04-01T04:21:35;8.20;;;6.83;;
4724;SDS011;2376;53.544;10.226;2023-04-01T04:24:04;14.53;;;8.07;;
4724;SDS011;2376;53.544;10.226;2023-04-01T04:26:31;8.33;;;7.37;;
4724;SDS011;2376;53.544;10.226;2023-04-01T04:28:58;6.93;;;6.33;;
4724;SDS011;2376;53.544;10.226;2023-04-01T04:31:25;6.40;;;5.80;;
4724;SDS011;2376;53.544;10.226;2023-04-01T04:33:52;8.33;;;6.23;;
4724;SDS011;2376;53.544;10.226;2023-04-01T04:36:20;6.60;;;6.10;;
4724;SDS011;2376;53.544;10.226;2023-04-01T04:38:47;7.40;;;6.37;;
4724;SDS011;2376;53.544;10.226;2023-04-01T04:41:16;7.93;;;6.37;;
4724;SDS011;2376;53.544;10.226;2023-04-01T04:43:48;9.00;;;6.90;;
4724;SDS011;2376;53.544;10.226;2023-04-01T04:46:17;6.50;;;6.00;;
4724;SDS011;2376;53.544;10.226;2023-04-01T04:48:44;7.73;;;6.93;;
4724;SDS011;2376;53.544;10.226;2023-04-01T04:51:15;6.97;;;6.33;;
4724;SDS011;2376;53.544;10.226;2023-04-01T04:53:42;10.10;;;7.10;;
4724;SDS011;2376;53.544;10.226;2023-04-01T04:56:10;7.23;;;6.70;;
4724;SDS011;2376;53.544;10.226;2023-04-01T04:58:39;9.50;;;6.97;;
4724;SDS011;2376;53.544;10.226;2023-04-01T05:01:08;7.87;;;7.17;;
4724;SDS011;2376;53.544;10.226;2023-04-01T05:03:35;6.57;;;5.80;;
4724;SDS011;2376;53.544;10.226;2023-04-01T05:06:02;6.87;;;6.37;;
4724;SDS011;2376;53.544;10.226;2023-04-01T05:08:30;6.97;;;6.30;;
4724;SDS011;2376;53.544;10.226;2023-04-01T05:10:57;6.80;;;6.30;;
4724;SDS011;2376;53.544;10.226;2023-04-01T05:13:24;10.23;;;6.63;;
4724;SDS011;2376;53.544;10.226;2023-04-01T05:15:52;7.27;;;6.73;;
4724;SDS011;2376;53.544;10.226;2023-04-01T05:18:20;6.97;;;6.37;;
4724;SDS011;2376;53.544;10.226;2023-04-01T05:20:47;6.47;;;5.87;;
4724;SDS011;2376;53.544;10.226;2023-04-01T05:23:14;5.83;;;5.40;;
4724;SDS011;2376;53.544;10.226;2023-04-01T05:25:41;8.23;;;4.70;;
4724;SDS011;2376;53.544;10.226;2023-04-01T05:28:09;2.67;;;2.47;;
4724;SDS011;2376;53.544;10.226;2023-04-01T05:30:36;2.30;;;2.20;;
4724;SDS011;2376;53.544;10.226;2023-04-01T05:33:07;1.30;;;1.20;;
4724;SDS011;2376;53.544;10.226;2023-04-01T05:35:34;2.80;;;1.30;;
4724;SDS011;2376;53.544;10.226;2023-04-01T05:38:01;1.97;;;1.87;;
4724;SDS011;2376;53.544;10.226;2023-04-01T05:40:29;1.10;;;1.10;;
4724;SDS011;2376;53.544;10.226;2023-04-01T05:42:56;1.77;;;1.60;;
4724;SDS011;2376;53.544;10.226;2023-04-01T05:45:23;1.60;;;1.50;;
4724;SDS011;2376;53.544;10.226;2023-04-01T05:47:50;1.60;;;1.50;;
4724;SDS011;2376;53.544;10.226;2023-04-01T05:50:18;1.53;;;1.43;;
4724;SDS011;2376;53.544;10.226;2023-04-01T05:52:45;1.73;;;1.63;;
4724;SDS011;2376;53.544;10.226;2023-04-01T05:55:12;1.83;;;1.73;;
4724;SDS011;2376;53.544;10.226;2023-04-01T05:57:39;1.70;;;1.60;;
4724;SDS011;2376;53.544;10.226;2023-04-01T06:00:06;0.97;;;0.97;;
4724;SDS011;2376;53.544;10.226;2023-04-01T06:02:34;0.90;;;0.90;;
4724;SDS011;2376;53.544;10.226;2023-04-01T06:05:03;1.10;;;1.00;;
4724;SDS011;2376;53.544;10.226;2023-04-01T06:07:39;1.00;;;1.00;;
4724;SDS011;2376;53.544;10.226;2023-04-01T06:10:10;1.00;;;1.00;;
4724;SDS011;2376;53.544;10.226;2023-04-01T06:12:40;1.00;;;1.00;;
4724;SDS011;2376;53.544;10.226;2023-04-01T06:15:20;0.97;;;0.97;;
4724;SDS011;2376;53.544;10.226;2023-04-01T06:17:58;1.57;;;1.47;;
4724;SDS011;2376;53.544;10.226;2023-04-01T06:20:52;1.53;;;1.40;;
4724;SDS011;2376;53.544;10.226;2023-04-01T06:23:35;3.03;;;1.60;;
4724;SDS011;2376;53.544;10.226;2023-04-01T06:26:18;1.60;;;1.50;;
4724;SDS011;2376;53.544;10.226;2023-04-01T06:31:56;1.97;;;1.63;;
4724;SDS011;2376;53.544;10.226;2023-04-01T06:34:49;1.40;;;1.30;;
4724;SDS011;2376;53.544;10.226;2023-04-01T06:37:34;1.47;;;1.40;;
4724;SDS011;2376;53.544;10.226;2023-04-01T06:40:21;1.60;;;1.30;;
4724;SDS011;2376;53.544;10.226;2023-04-01T06:43:07;1.00;;;1.00;;
4724;SDS011;2376;53.544;10.226;2023-04-01T06:45:41;1.37;;;1.27;;
4724;SDS011;2376;53.544;10.226;2023-04-01T06:48:22;1.27;;;1.17;;
4724;SDS011;2376;53.544;10.226;2023-04-01T06:51:00;0.80;;;0.80;;
4724;SDS011;2376;53.544;10.226;2023-04-01T06:53:33;0.83;;;0.83;;
4724;SDS011;2376;53.544;10.226;2023-04-01T06:56:08;0.97;;;0.97;;
4724;SDS011;2376;53.544;10.226;2023-04-01T06:58:37;0.77;;;0.77;;
4724;SDS011;2376;53.544;10.226;2023-04-01T07:01:08;1.13;;;0.93;;
4724;SDS011;2376;53.544;10.226;2023-04-01T07:03:40;1.10;;;1.10;;
4724;SDS011;2376;53.544;10.226;2023-04-01T07:06:10;1.03;;;1.03;;
4724;SDS011;2376;53.544;10.226;2023-04-01T07:08:42;1.10;;;1.10;;
4724;SDS011;2376;53.544;10.226;2023-04-01T07:11:14;0.83;;;0.80;;
4724;SDS011;2376;53.544;10.226;2023-04-01T07:13:51;1.10;;;1.00;;
4724;SDS011;2376;53.544;10.226;2023-04-01T07:16:23;0.93;;;0.93;;
4724;SDS011;2376;53.544;10.226;2023-04-01T07:18:56;2.10;;;1.37;;
4724;SDS011;2376;53.544;10.226;2023-04-01T07:21:29;1.90;;;1.00;;
4724;SDS011;2376;53.544;10.226;2023-04-01T07:24:01;1.20;;;1.10;;
4724;SDS011;2376;53.544;10.226;2023-04-01T07:26:33;1.13;;;1.13;;
4724;SDS011;2376;53.544;10.226;2023-04-01T07:29:00;0.90;;;0.90;;
4724;SDS011;2376;53.544;10.226;2023-04-01T07:31:33;1.47;;;1.00;;
4724;SDS011;2376;53.544;10.226;2023-04-01T07:34:23;1.73;;;0.93;;
4724;SDS011;2376;53.544;10.226;2023-04-01T07:36:53;0.90;;;0.90;;
4724;SDS011;2376;53.544;10.226;2023-04-01T07:39:28;0.80;;;0.80;;
4724;SDS011;2376;53.544;10.226;2023-04-01T07:42:06;0.80;;;0.80;;
4724;SDS011;2376;53.544;10.226;2023-04-01T07:44:42;0.90;;;0.90;;
4724;SDS011;2376;53.544;10.226;2023-04-01T07:47:23;2.17;;;1.60;;
4724;SDS011;2376;53.544;10.226;2023-04-01T07:50:10;1.37;;;1.33;;
4724;SDS011;2376;53.544;10.226;2023-04-01T07:52:44;0.93;;;0.93;;
4724;SDS011;2376;53.544;10.226;2023-04-01T07:55:20;0.97;;;0.93;;
4724;SDS011;2376;53.544;10.226;2023-04-01T07:57:55;1.20;;;1.10;;
4724;SDS011;2376;53.544;10.226;2023-04-01T08:00:27;1.07;;;1.07;;
4724;SDS011;2376;53.544;10.226;2023-04-01T08:03:06;0.90;;;0.90;;
4724;SDS011;2376;53.544;10.226;2023-04-01T08:05:46;1.00;;;1.00;;
4724;SDS011;2376;53.544;10.226;2023-04-01T08:08:21;0.90;;;0.90;;
4724;SDS011;2376;53.544;10.226;2023-04-01T08:10:55;1.53;;;0.80;;
4724;SDS011;2376;53.544;10.226;2023-04-01T08:13:31;1.60;;;0.90;;
4724;SDS011;2376;53.544;10.226;2023-04-01T08:16:09;0.87;;;0.87;;
4724;SDS011;2376;53.544;10.226;2023-04-01T08:18:46;0.87;;;0.87;;
4724;SDS011;2376;53.544;10.226;2023-04-01T08:21:21;0.90;;;0.80;;
4724;SDS011;2376;53.544;10.226;2023-04-01T08:23:51;1.03;;;0.93;;
4724;SDS011;2376;53.544;10.226;2023-04-01T08:26:23;0.83;;;0.83;;
4724;SDS011;2376;53.544;10.226;2023-04-01T08:28:59;1.00;;;1.00;;
4724;SDS011;2376;53.544;10.226;2023-04-01T08:31:30;1.17;;;0.70;;
4724;SDS011;2376;53.544;10.226;2023-04-01T08:34:02;0.93;;;0.93;;
4724;SDS011;2376;53.544;10.226;2023-04-01T08:36:32;1.07;;;1.07;;
4724;SDS011;2376;53.544;10.226;2023-04-01T08:39:03;1.00;;;0.97;;
4724;SDS011;2376;53.544;10.226;2023-04-01T08:44:37;0.80;;;0.80;;
4724;SDS011;2376;53.544;10.226;2023-04-01T08:47:40;1.00;;;1.00;;
4724;SDS011;2376;53.544;10.226;2023-04-01T08:50:33;0.90;;;0.90;;
4724;SDS011;2376;53.544;10.226;2023-04-01T08:53:27;1.20;;;1.10;;
4724;SDS011;2376;53.544;10.226;2023-04-01T08:56:26;1.00;;;1.00;;
4724;SDS011;2376;53.544;10.226;2023-04-01T08:59:13;0.80;;;0.80;;
4724;SDS011;2376;53.544;10.226;2023-04-01T09:02:09;1.20;;;1.20;;
4724;SDS011;2376;53.544;10.226;2023-04-01T09:04:50;1.63;;;1.00;;
4724;SDS011;2376;53.544;10.226;2023-04-01T09:07:33;1.00;;;1.00;;
4724;SDS011;2376;53.544;10.226;2023-04-01T09:10:11;0.90;;;0.90;;
4724;SDS011;2376;53.544;10.226;2023-04-01T09:12:59;0.80;;;0.80;;
4724;SDS011;2376;53.544;10.226;2023-04-01T09:15:54;1.17;;;1.07;;
4724;SDS011;2376;53.544;10.226;2023-04-01T09:18:39;1.10;;;1.10;;
4724;SDS011;2376;53.544;10.226;2023-04-01T09:21:33;0.80;;;0.80;;
4724;SDS011;2376;53.544;10.226;2023-04-01T09:27:08;0.90;;;0.90;;
4724;SDS011;2376;53.544;10.226;2023-04-01T09:29:54;0.93;;;0.93;;
4724;SDS011;2376;53.544;10.226;2023-04-01T09:35:42;0.90;;;0.90;;
4724;SDS011;2376;53.544;10.226;2023-04-01T09:38:22;0.80;;;0.80;;
4724;SDS011;2376;53.544;10.226;2023-04-01T09:40:55;1.00;;;1.00;;
4724;SDS011;2376;53.544;10.226;2023-04-01T09:43:27;1.80;;;1.10;;
4724;SDS011;2376;53.544;10.226;2023-04-01T09:46:06;0.93;;;0.93;;
4724;SDS011;2376;53.544;10.226;2023-04-01T09:48:49;1.20;;;1.20;;
4724;SDS011;2376;53.544;10.226;2023-04-01T09:51:38;0.87;;;0.87;;
4724;SDS011;2376;53.544;10.226;2023-04-01T09:54:20;1.13;;;1.13;;
4724;SDS011;2376;53.544;10.226;2023-04-01T10:00:02;0.80;;;0.80;;
4724;SDS011;2376;53.544;10.226;2023-04-01T10:02:51;0.90;;;0.90;;
4724;SDS011;2376;53.544;10.226;2023-04-01T10:09:14;0.90;;;0.90;;
4724;SDS011;2376;53.544;10.226;2023-04-01T10:18:31;1.07;;;1.07;;
4724;SDS011;2376;53.544;10.226;2023-04-01T10:21:25;0.80;;;0.80;;
4724;SDS011;2376;53.544;10.226;2023-04-01T10:24:25;0.80;;;0.80;;
4724;SDS011;2376;53.544;10.226;2023-04-01T10:27:16;3.23;;;0.80;;
4724;SDS011;2376;53.544;10.226;2023-04-01T10:30:20;1.07;;;0.87;;
4724;SDS011;2376;53.544;10.226;2023-04-01T10:35:55;0.70;;;0.70;;
4724;SDS011;2376;53.544;10.226;2023-04-01T10:45:02;0.80;;;0.80;;
4724;SDS011;2376;53.544;10.226;2023-04-01T10:56:50;0.90;;;0.90;;
4724;SDS011;2376;53.544;10.226;2023-04-01T11:02:55;0.90;;;0.90;;
4724;SDS011;2376;53.544;10.226;2023-04-01T11:05:58;0.90;;;0.90;;
4724;SDS011;2376;53.544;10.226;2023-04-01T11:12:08;2.33;;;1.00;;
4724;SDS011;2376;53.544;10.226;2023-04-01T11:15:01;0.90;;;0.90;;
4724;SDS011;2376;53.544;10.226;2023-04-01T11:27:22;1.10;;;1.00;;
4724;SDS011;2376;53.544;10.226;2023-04-01T11:30:11;1.37;;;1.23;;
4724;SDS011;2376;53.544;10.226;2023-04-01T11:32:46;0.90;;;0.90;;
4724;SDS011;2376;53.544;10.226;2023-04-01T11:35:23;1.97;;;1.87;;
4724;SDS011;2376;53.544;10.226;2023-04-01T11:38:04;1.20;;;1.20;;
4724;SDS011;2376;53.544;10.226;2023-04-01T11:40:44;1.70;;;1.60;;
4724;SDS011;2376;53.544;10.226;2023-04-01T11:43:16;1.67;;;1.57;;
4724;SDS011;2376;53.544;10.226;2023-04-01T11:45:51;1.67;;;1.57;;
4724;SDS011;2376;53.544;10.226;2023-04-01T11:48:33;1.83;;;1.73;;
4724;SDS011;2376;53.544;10.226;2023-04-01T11:51:20;1.90;;;1.80;;
4724;SDS011;2376;53.544;10.226;2023-04-01T11:53:59;1.60;;;1.50;;
4724;SDS011;2376;53.544;10.226;2023-04-01T11:56:38;2.23;;;2.13;;
4724;SDS011;2376;53.544;10.226;2023-04-01T11:59:27;2.60;;;2.40;;
4724;SDS011;2376;53.544;10.226;2023-04-01T12:02:06;2.60;;;2.37;;
4724;SDS011;2376;53.544;10.226;2023-04-01T12:07:55;2.60;;;2.13;;
4724;SDS011;2376;53.544;10.226;2023-04-01T12:10:44;2.70;;;2.43;;
4724;SDS011;2376;53.544;10.226;2023-04-01T12:13:22;3.67;;;2.40;;
4724;SDS011;2376;53.544;10.226;2023-04-01T12:16:02;2.90;;;2.07;;
4724;SDS011;2376;53.544;10.226;2023-04-01T12:18:40;3.10;;;2.60;;
4724;SDS011;2376;53.544;10.226;2023-04-01T12:21:17;2.20;;;2.03;;
4724;SDS011;2376;53.544;10.226;2023-04-01T12:23:56;4.20;;;2.30;;
4724;SDS011;2376;53.544;10.226;2023-04-01T12:27:01;4.30;;;2.13;;
4724;SDS011;2376;53.544;10.226;2023-04-01T12:29:58;3.43;;;3.13;;
4724;SDS011;2376;53.544;10.226;2023-04-01T12:32:45;3.07;;;2.90;;
4724;SDS011;2376;53.544;10.226;2023-04-01T12:35:21;3.30;;;2.83;;
4724;SDS011;2376;53.544;10.226;2023-04-01T12:37:56;2.97;;;2.77;;
4724;SDS011;2376;53.544;10.226;2023-04-01T12:40:45;3.27;;;3.07;;
4724;SDS011;2376;53.544;10.226;2023-04-01T12:43:29;2.43;;;2.23;;
4724;SDS011;2376;53.544;10.226;2023-04-01T12:46:21;2.97;;;2.77;;
4724;SDS011;2376;53.544;10.226;2023-04-01T12:49:14;4.43;;;3.10;;
4724;SDS011;2376;53.544;10.226;2023-04-01T12:54:56;2.90;;;2.70;;
4724;SDS011;2376;53.544;10.226;2023-04-01T12:57:51;2.23;;;2.13;;
4724;SDS011;2376;53.544;10.226;2023-04-01T13:00:46;3.43;;;2.77;;
4724;SDS011;2376;53.544;10.226;2023-04-01T13:03:41;2.40;;;2.20;;
4724;SDS011;2376;53.544;10.226;2023-04-01T13:06:26;2.83;;;2.63;;
4724;SDS011;2376;53.544;10.226;2023-04-01T13:09:01;2.30;;;2.10;;
4724;SDS011;2376;53.544;10.226;2023-04-01T13:11:43;5.33;;;3.03;;
4724;SDS011;2376;53.544;10.226;2023-04-01T13:17:17;3.83;;;2.47;;
4724;SDS011;2376;53.544;10.226;2023-04-01T13:19:49;2.40;;;2.20;;
4724;SDS011;2376;53.544;10.226;2023-04-01T13:22:20;2.80;;;2.60;;
4724;SDS011;2376;53.544;10.226;2023-04-01T13:24:55;5.67;;;2.83;;
4724;SDS011;2376;53.544;10.226;2023-04-01T13:27:29;4.00;;;2.50;;
4724;SDS011;2376;53.544;10.226;2023-04-01T13:30:09;2.57;;;2.37;;
4724;SDS011;2376;53.544;10.226;2023-04-01T13:32:53;2.77;;;2.40;;
4724;SDS011;2376;53.544;10.226;2023-04-01T13:35:30;2.50;;;2.30;;
4724;SDS011;2376;53.544;10.226;2023-04-01T13:38:09;2.23;;;2.03;;
4724;SDS011;2376;53.544;10.226;2023-04-01T13:40:57;4.33;;;2.37;;
4724;SDS011;2376;53.544;10.226;2023-04-01T13:43:34;2.33;;;2.23;;
4724;SDS011;2376;53.544;10.226;2023-04-01T13:46:07;2.53;;;2.43;;
4724;SDS011;2376;53.544;10.226;2023-04-01T13:48:49;4.53;;;2.40;;
4724;SDS011;2376;53.544;10.226;2023-04-01T13:51:52;2.80;;;2.60;;
4724;SDS011;2376;53.544;10.226;2023-04-01T13:54:49;2.37;;;2.23;;
4724;SDS011;2376;53.544;10.226;2023-04-01T14:00:23;3.40;;;3.10;;
4724;SDS011;2376;53.544;10.226;2023-04-01T14:05:55;4.63;;;3.00;;
4724;SDS011;2376;53.544;10.226;2023-04-01T14:08:29;2.87;;;2.67;;
4724;SDS011;2376;53.544;10.226;2023-04-01T14:11:09;2.93;;;2.73;;
4724;SDS011;2376;53.544;10.226;2023-04-01T14:13:43;3.20;;;2.90;;
4724;SDS011;2376;53.544;10.226;2023-04-01T14:16:23;6.30;;;3.60;;
4724;SDS011;2376;53.544;10.226;2023-04-01T14:19:08;3.33;;;3.03;;
4724;SDS011;2376;53.544;10.226;2023-04-01T14:21:52;3.13;;;2.93;;
4724;SDS011;2376;53.544;10.226;2023-04-01T14:24:35;3.30;;;3.00;;
4724;SDS011;2376;53.544;10.226;2023-04-01T14:27:19;3.43;;;3.17;;
4724;SDS011;2376;53.544;10.226;2023-04-01T14:30:04;3.00;;;2.80;;
4724;SDS011;2376;53.544;10.226;2023-04-01T14:32:46;4.67;;;4.17;;
4724;SDS011;2376;53.544;10.226;2023-04-01T14:35:31;4.50;;;4.10;;
4724;SDS011;2376;53.544;10.226;2023-04-01T14:40:56;4.53;;;4.03;;
4724;SDS011;2376;53.544;10.226;2023-04-01T14:43:40;6.20;;;4.17;;
4724;SDS011;2376;53.544;10.226;2023-04-01T14:49:34;3.60;;;3.40;;
4724;SDS011;2376;53.544;10.226;2023-04-01T14:52:04;4.87;;;3.43;;
4724;SDS011;2376;53.544;10.226;2023-04-01T14:54:38;6.70;;;3.37;;
4724;SDS011;2376;53.544;10.226;2023-04-01T14:57:10;3.70;;;3.40;;
4724;SDS011;2376;53.544;10.226;2023-04-01T14:59:40;3.90;;;3.60;;
4724;SDS011;2376;53.544;10.226;2023-04-01T15:02:15;6.03;;;4.17;;
4724;SDS011;2376;53.544;10.226;2023-04-01T15:05:01;6.60;;;3.67;;
4724;SDS011;2376;53.544;10.226;2023-04-01T15:11:01;4.40;;;3.80;;
4724;SDS011;2376;53.544;10.226;2023-04-01T15:13:54;5.13;;;4.73;;
4724;SDS011;2376;53.544;10.226;2023-04-01T15:16:33;5.10;;;4.30;;
4724;SDS011;2376;53.544;10.226;2023-04-01T15:19:09;5.00;;;3.43;;
4724;SDS011;2376;53.544;10.226;2023-04-01T15:21:46;9.00;;;3.63;;
4724;SDS011;2376;53.544;10.226;2023-04-01T15:24:39;4.63;;;3.40;;
4724;SDS011;2376;53.544;10.226;2023-04-01T15:27:15;10.07;;;4.20;;
4724;SDS011;2376;53.544;10.226;2023-04-01T15:29:56;6.03;;;3.73;;
4724;SDS011;2376;53.544;10.226;2023-04-01T15:32:46;6.00;;;4.20;;
4724;SDS011;2376;53.544;10.226;2023-04-01T15:35:26;4.30;;;3.90;;
4724;SDS011;2376;53.544;10.226;2023-04-01T15:38:03;6.50;;;3.37;;
4724;SDS011;2376;53.544;10.226;2023-04-01T15:40:36;4.17;;;3.70;;
4724;SDS011;2376;53.544;10.226;2023-04-01T15:43:14;4.40;;;4.10;;
4724;SDS011;2376;53.544;10.226;2023-04-01T15:45:50;4.03;;;3.73;;
4724;SDS011;2376;53.544;10.226;2023-04-01T15:48:28;4.10;;;3.47;;
4724;SDS011;2376;53.544;10.226;2023-04-01T15:51:08;6.60;;;5.03;;
4724;SDS011;2376;53.544;10.226;2023-04-01T15:56:51;5.37;;;4.70;;
4724;SDS011;2376;53.544;10.226;2023-04-01T16:02:29;6.20;;;4.33;;
4724;SDS011;2376;53.544;10.226;2023-04-01T16:05:00;5.80;;;4.47;;
4724;SDS011;2376;53.544;10.226;2023-04-01T16:07:42;5.40;;;4.07;;
4724;SDS011;2376;53.544;10.226;2023-04-01T16:10:21;8.13;;;4.40;;
4724;SDS011;2376;53.544;10.226;2023-04-01T16:13:08;7.33;;;4.20;;
4724;SDS011;2376;53.544;10.226;2023-04-01T16:15:49;7.93;;;4.40;;
4724;SDS011;2376;53.544;10.226;2023-04-01T16:18:28;8.00;;;4.67;;
4724;SDS011;2376;53.544;10.226;2023-04-01T16:21:23;7.13;;;4.23;;
4724;SDS011;2376;53.544;10.226;2023-04-01T16:24:01;12.30;;;4.53;;
4724;SDS011;2376;53.544;10.226;2023-04-01T16:26:42;5.47;;;3.23;;
4724;SDS011;2376;53.544;10.226;2023-04-01T16:29:17;6.20;;;3.93;;
4724;SDS011;2376;53.544;10.226;2023-04-01T16:31:52;5.47;;;3.33;;
4724;SDS011;2376;53.544;10.226;2023-04-01T16:34:27;6.40;;;3.40;;
4724;SDS011;2376;53.544;10.226;2023-04-01T16:37:03;5.20;;;4.50;;
4724;SDS011;2376;53.544;10.226;2023-04-01T16:39:33;4.93;;;3.73;;
4724;SDS011;2376;53.544;10.226;2023-04-01T16:42:23;3.93;;;3.53;;
4724;SDS011;2376;53.544;10.226;2023-04-01T16:44:59;5.50;;;4.03;;
4724;SDS011;2376;53.544;10.226;2023-04-01T16:47:36;9.40;;;4.30;;
4724;SDS011;2376;53.544;10.226;2023-04-01T16:50:11;5.00;;;4.20;;
4724;SDS011;2376;53.544;10.226;2023-04-01T16:52:48;4.83;;;4.40;;
4724;SDS011;2376;53.544;10.226;2023-04-01T16:55:24;6.70;;;5.07;;
4724;SDS011;2376;53.544;10.226;2023-04-01T16:58:01;11.73;;;5.23;;
4724;SDS011;2376;53.544;10.226;2023-04-01T17:00:29;5.47;;;4.40;;
4724;SDS011;2376;53.544;10.226;2023-04-01T17:03:08;5.33;;;4.10;;
4724;SDS011;2376;53.544;10.226;2023-04-01T17:05:45;10.07;;;4.33;;
4724;SDS011;2376;53.544;10.226;2023-04-01T17:08:22;5.03;;;4.03;;
4724;SDS011;2376;53.544;10.226;2023-04-01T17:10:56;8.60;;;3.60;;
4724;SDS011;2376;53.544;10.226;2023-04-01T17:13:30;4.03;;;3.70;;
4724;SDS011;2376;53.544;10.226;2023-04-01T17:16:10;10.43;;;4.03;;
4724;SDS011;2376;53.544;10.226;2023-04-01T17:18:57;8.43;;;3.70;;
4724;SDS011;2376;53.544;10.226;2023-04-01T17:21:38;5.40;;;3.43;;
4724;SDS011;2376;53.544;10.226;2023-04-01T17:24:18;3.73;;;3.37;;